createdAt,value
2018-03-14T00:00:33.472Z,9.70
2018-03-14T00:03:01.112Z,9.70
2018-03-14T00:05:29.864Z,9.70
2018-03-14T00:07:58.243Z,9.70
2018-03-14T00:10:25.934Z,9.70
2018-03-14T00:12:54.322Z,9.70
2018-03-14T00:15:22.734Z,9.80
2018-03-14T00:17:50.356Z,9.70
2018-03-14T00:20:18.727Z,9.70
2018-03-14T00:22:47.132Z,9.80
2018-03-14T00:25:15.499Z,9.80
2018-03-14T00:27:43.148Z,9.70
2018-03-14T00:30:10.748Z,9.80
2018-03-14T00:32:38.368Z,9.80
2018-03-14T00:35:06.782Z,9.80
2018-03-14T00:37:34.388Z,9.80
2018-03-14T00:40:02.786Z,9.80
2018-03-14T00:42:30.406Z,9.80
2018-03-14T00:44:58.051Z,9.80
2018-03-14T00:47:25.664Z,9.90
2018-03-14T00:49:53.272Z,9.90
2018-03-14T00:52:20.915Z,9.90
2018-03-14T00:54:48.520Z,9.90
2018-03-14T00:57:16.140Z,9.90
2018-03-14T00:59:43.756Z,9.90
2018-03-14T01:02:11.420Z,9.80
2018-03-14T01:04:38.995Z,9.80
2018-03-14T01:07:07.370Z,9.80
2018-03-14T01:09:35.775Z,9.80
2018-03-14T01:12:03.386Z,9.80
2018-03-14T01:14:31.021Z,9.80
2018-03-14T01:16:58.623Z,9.80
2018-03-14T01:19:26.292Z,9.80
2018-03-14T01:21:54.688Z,9.80
2018-03-14T01:24:23.065Z,9.80
2018-03-14T01:26:50.688Z,9.70
2018-03-14T01:29:18.305Z,9.80
2018-03-14T01:31:45.941Z,9.80
2018-03-14T01:34:13.557Z,9.80
2018-03-14T01:36:41.198Z,9.80
2018-03-14T01:39:08.811Z,9.80
2018-03-14T01:41:36.444Z,9.70
2018-03-14T01:44:04.052Z,9.70
2018-03-14T01:46:32.424Z,9.70
2018-03-14T01:49:00.825Z,9.70
2018-03-14T01:51:28.452Z,9.60
2018-03-14T01:53:56.104Z,9.70
2018-03-14T01:56:23.731Z,9.70
2018-03-14T01:58:51.337Z,9.70
2018-03-14T02:01:18.980Z,9.70
2018-03-14T02:03:46.576Z,9.60
2018-03-14T02:06:14.988Z,9.60
2018-03-14T02:08:42.596Z,9.60
2018-03-14T02:11:11.011Z,9.60
2018-03-14T02:13:38.625Z,9.60
2018-03-14T02:16:06.298Z,9.60
2018-03-14T02:18:33.936Z,9.60
2018-03-14T02:21:01.622Z,9.60
2018-03-14T02:23:29.244Z,9.60
2018-03-14T02:25:56.938Z,9.60
2018-03-14T02:28:24.582Z,9.60
2018-03-14T02:30:52.195Z,9.60
2018-03-14T02:33:20.600Z,9.50
2018-03-14T02:35:48.208Z,9.50
2018-03-14T02:38:15.860Z,9.50
2018-03-14T02:40:43.471Z,9.50
2018-03-14T02:43:11.124Z,9.50
2018-03-14T02:45:38.755Z,9.50
2018-03-14T02:48:06.335Z,9.50
2018-03-14T02:50:33.959Z,9.50
2018-03-14T02:53:01.543Z,9.50
2018-03-14T02:55:29.133Z,9.50
2018-03-14T02:57:57.511Z,9.50
2018-03-14T03:00:25.896Z,9.50
2018-03-14T03:02:54.271Z,9.50
2018-03-14T03:05:22.624Z,9.40
2018-03-14T03:07:50.247Z,9.40
2018-03-14T03:10:17.833Z,9.40
2018-03-14T03:12:45.448Z,9.40
2018-03-14T03:15:13.041Z,9.40
2018-03-14T03:17:40.648Z,9.40
2018-03-14T03:20:09.000Z,9.40
2018-03-14T03:22:36.616Z,9.30
2018-03-14T03:25:04.203Z,9.30
2018-03-14T03:27:31.821Z,9.30
2018-03-14T03:30:00.178Z,9.30
2018-03-14T03:32:27.791Z,9.30
2018-03-14T03:34:55.373Z,9.30
2018-03-14T03:37:22.979Z,9.30
2018-03-14T03:39:51.332Z,9.30
2018-03-14T03:42:18.948Z,9.30
2018-03-14T03:44:46.576Z,9.30
2018-03-14T03:47:14.955Z,9.30
2018-03-14T03:49:43.310Z,9.30
2018-03-14T03:52:10.922Z,9.30
2018-03-14T03:54:38.504Z,9.30
2018-03-14T03:57:06.107Z,9.30
2018-03-14T03:59:34.453Z,9.30
2018-03-14T04:02:02.065Z,9.20
2018-03-14T04:04:29.654Z,9.30
2018-03-14T04:06:57.276Z,9.20
2018-03-14T04:09:25.632Z,9.20
2018-03-14T04:11:53.216Z,9.20
2018-03-14T04:14:21.595Z,9.20
2018-03-14T04:16:49.945Z,9.20
2018-03-14T04:19:17.552Z,9.10
2018-03-14T04:21:45.133Z,9.20
2018-03-14T04:24:12.745Z,9.20
2018-03-14T04:26:41.223Z,9.20
2018-03-14T04:29:09.500Z,9.20
2018-03-14T04:31:37.855Z,9.20
2018-03-14T04:34:05.472Z,9.20
2018-03-14T04:36:33.065Z,9.20
2018-03-14T04:39:00.668Z,9.20
2018-03-14T04:41:29.015Z,9.20
2018-03-14T04:43:56.645Z,9.10
2018-03-14T04:46:24.245Z,9.20
2018-03-14T04:48:51.857Z,9.20
2018-03-14T04:51:19.456Z,9.20
2018-03-14T04:53:47.072Z,9.20
2018-03-14T04:56:14.656Z,9.20
2018-03-14T04:58:42.264Z,9.10
2018-03-14T05:01:10.615Z,9.10
2018-03-14T05:03:38.244Z,9.10
2018-03-14T05:06:05.836Z,9.10
2018-03-14T05:08:33.418Z,9.20
2018-03-14T05:11:01.147Z,9.10
2018-03-14T05:13:28.733Z,9.10
2018-03-14T05:15:56.343Z,9.10
2018-03-14T05:18:23.928Z,9.10
2018-03-14T05:20:51.547Z,9.10
2018-03-14T05:23:19.128Z,9.10
2018-03-14T05:25:46.736Z,9.00
2018-03-14T05:28:14.320Z,9.00
2018-03-14T05:30:42.699Z,8.90
2018-03-14T05:33:11.120Z,8.90
2018-03-14T05:35:38.731Z,8.90
2018-03-14T05:38:07.092Z,8.90
2018-03-14T05:40:34.745Z,8.90
2018-03-14T05:43:02.320Z,8.90
2018-03-14T05:45:29.935Z,8.90
2018-03-14T05:47:57.520Z,8.90
2018-03-14T05:50:25.129Z,8.90
2018-03-14T05:52:52.716Z,8.90
2018-03-14T05:55:20.316Z,8.90
2018-03-14T05:57:47.905Z,8.90
2018-03-14T06:00:15.518Z,8.90
2018-03-14T06:02:43.909Z,8.90
2018-03-14T06:05:12.297Z,8.80
2018-03-14T06:07:41.392Z,8.80
2018-03-14T06:10:09.007Z,8.70
2018-03-14T06:12:36.603Z,8.80
2018-03-14T06:15:04.981Z,8.80
2018-03-14T06:17:32.568Z,8.70
2018-03-14T06:20:00.916Z,8.80
2018-03-14T06:22:28.524Z,8.80
2018-03-14T06:24:56.120Z,8.80
2018-03-14T06:27:23.728Z,8.80
2018-03-14T06:29:52.122Z,8.80
2018-03-14T06:32:19.724Z,8.70
2018-03-14T06:34:47.368Z,8.80
2018-03-14T06:37:14.957Z,8.80
2018-03-14T06:39:42.565Z,8.90
2018-03-14T06:42:10.148Z,8.90
2018-03-14T06:44:37.829Z,8.90
2018-03-14T06:47:05.417Z,8.90
2018-03-14T06:49:33.036Z,8.90
2018-03-14T06:52:00.634Z,8.90
2018-03-14T06:54:28.291Z,8.90
2018-03-14T06:56:55.884Z,8.90
2018-03-14T06:59:36.112Z,8.90
2018-03-14T07:02:15.589Z,8.90
2018-03-14T07:05:06.740Z,8.90
2018-03-14T07:07:34.338Z,8.90
2018-03-14T07:10:02.696Z,8.90
2018-03-14T07:12:30.317Z,8.80
2018-03-14T07:14:57.899Z,8.90
2018-03-14T07:17:25.564Z,8.90
2018-03-14T07:19:55.724Z,9.00
2018-03-14T07:22:23.497Z,9.00
2018-03-14T07:24:51.852Z,9.00
2018-03-14T07:27:19.480Z,9.00
2018-03-14T07:29:47.076Z,9.00
2018-03-14T07:32:14.689Z,9.00
2018-03-14T07:34:42.276Z,9.00
2018-03-14T07:37:09.884Z,9.10
2018-03-14T07:39:37.465Z,9.00
2018-03-14T07:42:05.076Z,9.10
2018-03-14T07:44:32.661Z,9.10
2018-03-14T07:47:01.047Z,9.10
2018-03-14T07:49:28.639Z,9.00
2018-03-14T07:51:56.259Z,9.10
2018-03-14T07:54:24.616Z,9.20
2018-03-14T07:56:52.256Z,9.10
2018-03-14T07:59:19.848Z,9.20
2018-03-14T08:01:48.227Z,9.20
2018-03-14T08:04:16.600Z,9.20
2018-03-14T08:06:44.217Z,9.20
2018-03-14T08:09:11.855Z,9.30
2018-03-14T08:11:39.481Z,9.20
2018-03-14T08:14:07.065Z,9.30
2018-03-14T08:16:34.682Z,9.40
2018-03-14T08:19:02.324Z,9.40
2018-03-14T08:21:29.988Z,9.40
2018-03-14T08:23:57.581Z,9.40
2018-03-14T08:26:25.201Z,9.50
2018-03-14T08:28:52.790Z,9.50
2018-03-14T08:31:20.412Z,9.50
2018-03-14T08:33:48.005Z,9.50
2018-03-14T08:36:15.628Z,9.50
2018-03-14T08:38:43.221Z,9.50
2018-03-14T08:41:10.840Z,9.50
2018-03-14T08:43:38.432Z,9.60
2018-03-14T08:46:06.049Z,9.60
2018-03-14T08:48:33.675Z,9.60
2018-03-14T08:51:01.292Z,9.50
2018-03-14T08:53:28.875Z,9.60
2018-03-14T08:55:56.499Z,9.60
2018-03-14T08:58:24.084Z,9.60
2018-03-14T09:00:51.716Z,9.70
2018-03-14T09:03:19.304Z,9.70
2018-03-14T09:05:46.960Z,9.70
2018-03-14T09:08:14.557Z,9.80
2018-03-14T09:10:42.183Z,9.80
2018-03-14T09:13:09.781Z,9.90
2018-03-14T09:15:37.409Z,9.90
2018-03-14T09:18:05.026Z,9.90
2018-03-14T09:20:33.384Z,10.00
2018-03-14T09:23:01.004Z,10.00
2018-03-14T09:25:28.596Z,10.10
2018-03-14T09:27:56.208Z,10.10
2018-03-14T09:30:23.813Z,10.20
2018-03-14T09:32:51.431Z,10.30
2018-03-14T09:35:19.020Z,10.30
2018-03-14T09:37:46.639Z,10.40
2018-03-14T09:40:14.999Z,10.50
2018-03-14T09:42:42.616Z,10.40
2018-03-14T09:45:10.204Z,10.60
2018-03-14T09:47:37.836Z,10.60
2018-03-14T09:50:05.441Z,10.70
2018-03-14T09:52:33.056Z,10.70
2018-03-14T09:55:00.661Z,10.80
2018-03-14T09:57:28.279Z,10.80
2018-03-14T09:59:55.876Z,10.80
2018-03-14T10:02:23.520Z,10.80
2018-03-14T10:04:51.110Z,10.90
2018-03-14T10:07:18.735Z,11.00
2018-03-14T10:09:46.333Z,11.00
2018-03-14T10:12:14.697Z,11.10
2018-03-14T10:14:42.358Z,11.00
2018-03-14T10:17:09.987Z,11.10
2018-03-14T10:19:37.596Z,11.10
2018-03-14T10:22:05.992Z,11.20
2018-03-14T10:24:34.375Z,11.20
2018-03-14T10:27:02.099Z,11.10
2018-03-14T10:29:29.757Z,11.20
2018-03-14T10:31:57.504Z,11.20
2018-03-14T10:34:25.287Z,11.20
2018-03-14T10:36:53.049Z,11.20
2018-03-14T10:39:20.912Z,11.30
2018-03-14T10:41:48.518Z,11.30
2018-03-14T10:44:16.900Z,11.40
2018-03-14T10:46:44.493Z,11.30
2018-03-14T10:49:12.142Z,11.40
2018-03-14T10:51:39.744Z,11.50
2018-03-14T10:54:07.410Z,11.50
2018-03-14T10:56:35.035Z,11.50
2018-03-14T10:59:02.633Z,11.60
2018-03-14T11:01:35.869Z,11.60
2018-03-14T11:04:03.461Z,11.70
2018-03-14T11:06:31.084Z,11.70
2018-03-14T11:08:58.674Z,11.60
2018-03-14T11:11:26.299Z,11.60
2018-03-14T11:13:54.653Z,11.50
2018-03-14T11:16:22.245Z,11.50
2018-03-14T11:18:49.869Z,11.60
2018-03-14T11:21:17.465Z,11.50
2018-03-14T11:23:45.081Z,11.60
2018-03-14T11:26:12.676Z,11.60
2018-03-14T11:28:41.077Z,11.60
2018-03-14T11:31:08.729Z,11.50
2018-03-14T11:33:36.343Z,11.60
2018-03-14T11:36:03.927Z,11.60
2018-03-14T11:38:32.320Z,11.60
2018-03-14T11:41:00.022Z,11.60
2018-03-14T11:43:27.648Z,11.60
2018-03-14T11:45:55.359Z,11.60
2018-03-14T11:48:22.963Z,11.70
2018-03-14T11:50:51.347Z,11.80
2018-03-14T11:53:19.038Z,11.70
2018-03-14T11:55:46.660Z,11.80
2018-03-14T11:58:15.085Z,11.80
2018-03-14T12:00:42.766Z,11.70
2018-03-14T12:03:10.365Z,11.80
2018-03-14T12:05:38.810Z,11.80
2018-03-14T12:08:06.417Z,11.70
2018-03-14T12:10:34.052Z,11.80
2018-03-14T12:13:01.660Z,11.80
2018-03-14T12:15:29.292Z,11.80
2018-03-14T12:17:57.839Z,11.70
2018-03-14T12:20:25.706Z,11.70
2018-03-14T12:22:53.472Z,11.70
2018-03-14T12:25:21.337Z,11.70
2018-03-14T12:27:49.199Z,11.70
2018-03-14T12:30:17.066Z,11.70
2018-03-14T12:32:44.932Z,11.70
2018-03-14T12:35:12.800Z,11.70
2018-03-14T12:37:40.668Z,11.70
2018-03-14T12:40:08.427Z,11.70
2018-03-14T12:42:36.297Z,11.70
2018-03-14T12:45:04.176Z,11.80
2018-03-14T12:47:32.794Z,11.80
2018-03-14T12:50:00.617Z,11.70
2018-03-14T12:52:28.421Z,11.80
2018-03-14T12:54:56.234Z,11.70
2018-03-14T12:57:24.102Z,11.70
2018-03-14T12:59:51.928Z,11.70
2018-03-14T13:02:19.798Z,11.70
2018-03-14T13:04:47.609Z,11.80
2018-03-14T13:07:15.477Z,11.80
2018-03-14T13:09:43.344Z,11.80
2018-03-14T13:12:11.208Z,11.70
2018-03-14T13:14:38.934Z,11.70
2018-03-14T13:17:06.543Z,11.60
2018-03-14T13:19:34.165Z,11.60
2018-03-14T13:22:01.778Z,11.50
2018-03-14T13:24:29.444Z,11.50
2018-03-14T13:26:57.806Z,11.40
2018-03-14T13:29:25.424Z,11.30
2018-03-14T13:31:53.016Z,11.30
2018-03-14T13:34:20.607Z,11.30
2018-03-14T13:36:48.990Z,11.30
2018-03-14T13:39:17.369Z,11.30
2018-03-14T13:41:45.766Z,11.30
2018-03-14T13:44:13.368Z,11.20
2018-03-14T13:46:41.011Z,11.20
2018-03-14T13:49:08.636Z,11.20
2018-03-14T13:51:37.036Z,11.20
2018-03-14T13:54:04.633Z,11.10
2018-03-14T13:56:32.499Z,11.10
2018-03-14T13:59:00.155Z,11.10
2018-03-14T14:01:27.844Z,11.20
2018-03-14T14:03:55.431Z,11.20
2018-03-14T14:06:23.052Z,11.30
2018-03-14T14:08:50.643Z,11.20
2018-03-14T14:11:19.020Z,11.20
2018-03-14T14:13:47.384Z,11.20
2018-03-14T14:16:15.349Z,11.10
2018-03-14T14:18:43.147Z,11.30
2018-03-14T14:21:11.072Z,11.20
2018-03-14T14:23:38.803Z,11.20
2018-03-14T14:26:06.694Z,11.30
2018-03-14T14:28:34.459Z,11.30
2018-03-14T14:31:02.341Z,11.30
2018-03-14T14:33:30.073Z,11.40
2018-03-14T14:35:57.789Z,11.40
2018-03-14T14:38:26.346Z,11.40
2018-03-14T14:40:54.080Z,11.30
2018-03-14T14:43:21.839Z,11.40
2018-03-14T14:45:49.572Z,11.40
2018-03-14T14:48:18.114Z,11.40
2018-03-14T14:50:45.830Z,11.40
2018-03-14T14:53:14.427Z,11.40
2018-03-14T14:55:42.222Z,11.40
2018-03-14T14:58:10.187Z,11.40
2018-03-14T15:00:37.964Z,11.40
2018-03-14T15:03:05.820Z,11.40
2018-03-14T15:05:33.694Z,11.40
2018-03-14T15:08:01.509Z,11.40
2018-03-14T15:10:29.276Z,11.40
2018-03-14T15:12:57.095Z,11.40
2018-03-14T15:15:24.866Z,11.40
2018-03-14T15:17:53.534Z,11.40
2018-03-14T15:20:21.404Z,11.30
2018-03-14T15:22:49.588Z,11.30
2018-03-14T15:25:17.447Z,11.40
2018-03-14T15:27:45.205Z,11.30
2018-03-14T15:30:13.075Z,11.40
2018-03-14T15:32:40.830Z,11.40
2018-03-14T15:35:08.414Z,11.40
2018-03-14T15:37:36.057Z,11.40
2018-03-14T15:40:03.648Z,11.40
2018-03-14T15:42:32.000Z,11.30
2018-03-14T15:44:59.616Z,11.20
2018-03-14T15:47:27.304Z,11.20
2018-03-14T15:49:54.920Z,11.10
2018-03-14T15:52:23.305Z,11.10
2018-03-14T15:54:51.684Z,11.20
2018-03-14T15:57:20.040Z,11.20
2018-03-14T15:59:47.664Z,11.10
2018-03-14T16:02:15.256Z,11.20
2018-03-14T16:04:42.885Z,11.20
2018-03-14T16:07:10.768Z,11.20
2018-03-14T16:09:38.588Z,11.10
2018-03-14T16:12:06.402Z,11.10
2018-03-14T16:14:35.086Z,11.10
2018-03-14T16:17:03.874Z,11.00
2018-03-14T16:19:31.702Z,11.00
2018-03-14T16:21:59.504Z,11.00
2018-03-14T16:24:27.372Z,11.00
2018-03-14T16:26:55.256Z,11.00
2018-03-14T16:29:23.220Z,10.90
2018-03-14T16:31:51.076Z,10.90
2018-03-14T16:34:18.852Z,10.90
2018-03-14T16:36:46.701Z,10.90
2018-03-14T16:39:14.566Z,10.90
2018-03-14T16:41:42.333Z,10.90
2018-03-14T16:44:10.217Z,10.80
2018-03-14T16:46:37.960Z,10.80
2018-03-14T16:49:05.738Z,10.80
2018-03-14T16:51:33.596Z,10.70
2018-03-14T16:54:01.367Z,10.70
2018-03-14T16:56:29.004Z,10.70
2018-03-14T16:58:56.886Z,10.70
2018-03-14T17:01:24.583Z,10.70
2018-03-14T17:03:52.997Z,10.60
2018-03-14T17:06:20.779Z,10.60
2018-03-14T17:08:48.436Z,10.60
2018-03-14T17:11:16.802Z,10.60
2018-03-14T17:13:44.698Z,10.60
2018-03-14T17:16:12.470Z,10.50
2018-03-14T17:18:40.336Z,10.50
2018-03-14T17:21:08.230Z,10.50
2018-03-14T17:23:36.890Z,10.50
2018-03-14T17:26:04.752Z,10.40
2018-03-14T17:28:32.617Z,10.40
2018-03-14T17:31:00.391Z,10.30
2018-03-14T17:33:28.216Z,10.30
2018-03-14T17:35:56.117Z,10.30
2018-03-14T17:38:23.994Z,10.20
2018-03-14T17:40:51.852Z,10.10
2018-03-14T17:43:19.635Z,10.00
2018-03-14T17:45:47.395Z,10.00
2018-03-14T17:48:15.127Z,10.00
2018-03-14T17:50:43.017Z,9.90
2018-03-14T17:53:10.876Z,9.80
2018-03-14T17:55:38.644Z,9.70
2018-03-14T17:58:06.461Z,9.60
2018-03-14T18:00:34.258Z,9.60
2018-03-14T18:03:02.094Z,9.60
2018-03-14T18:05:29.856Z,9.60
2018-03-14T18:07:57.589Z,9.60
2018-03-14T18:10:25.347Z,9.60
2018-03-14T18:12:53.064Z,9.60
2018-03-14T18:15:20.872Z,9.70
2018-03-14T18:17:48.590Z,9.70
2018-03-14T18:20:16.497Z,9.80
2018-03-14T18:22:44.456Z,9.70
2018-03-14T18:25:12.262Z,9.80
2018-03-14T18:27:41.046Z,9.80
2018-03-14T18:30:09.598Z,9.80
2018-03-14T18:32:37.378Z,9.70
2018-03-14T18:35:05.143Z,9.70
2018-03-14T18:37:32.855Z,9.70
2018-03-14T18:40:00.653Z,9.70
2018-03-14T18:42:28.372Z,9.80
2018-03-14T18:44:56.140Z,9.70
2018-03-14T18:47:23.845Z,9.70
2018-03-14T18:49:51.563Z,9.70
2018-03-14T18:52:19.242Z,9.70
2018-03-14T18:54:46.937Z,9.70
2018-03-14T18:57:14.628Z,9.70
2018-03-14T18:59:43.033Z,9.70
2018-03-14T19:02:10.757Z,9.60
2018-03-14T19:04:38.442Z,9.70
2018-03-14T19:07:06.892Z,9.80
2018-03-14T19:09:34.642Z,9.70
2018-03-14T19:12:02.509Z,9.80
2018-03-14T19:14:30.261Z,9.90
2018-03-14T19:16:57.970Z,9.90
2018-03-14T19:19:26.417Z,10.00
2018-03-14T19:21:54.076Z,9.90
2018-03-14T19:24:24.296Z,10.00
2018-03-14T19:26:55.918Z,10.00
2018-03-14T19:29:26.451Z,9.90
2018-03-14T19:31:56.741Z,9.90
2018-03-14T19:34:25.605Z,9.90
2018-03-14T19:36:53.680Z,9.90
2018-03-14T19:39:21.536Z,9.90
2018-03-14T19:41:49.406Z,10.00
2018-03-14T19:44:17.234Z,10.00
2018-03-14T19:46:45.145Z,10.00
2018-03-14T19:49:12.951Z,10.10
2018-03-14T19:51:41.595Z,10.10
2018-03-14T19:54:10.221Z,10.00
2018-03-14T19:56:38.044Z,10.00
2018-03-14T19:59:05.807Z,10.00
2018-03-14T20:01:33.675Z,10.00
2018-03-14T20:04:01.489Z,10.00
2018-03-14T20:06:29.405Z,10.00
2018-03-14T20:08:57.315Z,10.00
2018-03-14T20:11:25.234Z,9.90
2018-03-14T20:13:52.965Z,10.00
2018-03-14T20:16:20.876Z,10.00
2018-03-14T20:18:48.743Z,10.00
2018-03-14T20:21:16.603Z,9.90
2018-03-14T20:23:44.473Z,9.90
2018-03-14T20:26:12.337Z,9.90
2018-03-14T20:28:40.205Z,9.90
2018-03-14T20:31:07.975Z,9.90
2018-03-14T20:33:35.838Z,9.90
2018-03-14T20:36:03.706Z,9.90
2018-03-14T20:38:31.568Z,10.00
2018-03-14T20:40:59.437Z,9.90
2018-03-14T20:43:27.302Z,9.90
2018-03-14T20:45:55.169Z,9.90
2018-03-14T20:48:23.039Z,9.90
2018-03-14T20:50:50.806Z,9.90
2018-03-14T20:53:18.672Z,9.90
2018-03-14T20:55:46.436Z,9.90
2018-03-14T20:58:14.297Z,9.90
2018-03-14T21:00:42.139Z,9.90
2018-03-14T21:03:12.281Z,9.90
2018-03-14T21:05:40.158Z,9.90
2018-03-14T21:08:07.924Z,9.90
2018-03-14T21:10:35.731Z,9.90
2018-03-14T21:13:03.648Z,9.90
2018-03-14T21:15:31.518Z,9.90
2018-03-14T21:17:59.379Z,9.80
2018-03-14T21:20:27.145Z,9.80
2018-03-14T21:22:55.018Z,9.80
2018-03-14T21:25:22.886Z,9.80
2018-03-14T21:27:50.748Z,9.80
2018-03-14T21:30:18.620Z,9.80
2018-03-14T21:32:46.484Z,9.70
2018-03-14T21:35:14.348Z,9.70
2018-03-14T21:37:42.246Z,9.80
2018-03-14T21:40:10.913Z,9.70
2018-03-14T21:42:38.719Z,9.70
2018-03-14T21:45:06.633Z,9.70
2018-03-14T21:47:34.503Z,9.70
2018-03-14T21:50:02.381Z,9.60
2018-03-14T21:52:30.236Z,9.70
2018-03-14T21:54:58.103Z,9.60
2018-03-14T21:57:25.977Z,9.60
2018-03-14T21:59:53.850Z,9.60
2018-03-14T22:02:23.133Z,9.60
2018-03-14T22:04:51.002Z,9.60
2018-03-14T22:07:18.765Z,9.70
2018-03-14T22:09:46.631Z,9.70
2018-03-14T22:12:14.497Z,9.70
2018-03-14T22:14:42.367Z,9.70
2018-03-14T22:17:10.181Z,9.70
2018-03-14T22:19:37.954Z,9.70
2018-03-14T22:22:05.760Z,9.60
2018-03-14T22:24:33.740Z,9.60
2018-03-14T22:27:01.424Z,9.60
2018-03-14T22:29:30.072Z,9.50
2018-03-14T22:31:57.711Z,9.40
2018-03-14T22:34:25.420Z,9.50
2018-03-14T22:36:53.019Z,9.50
2018-03-14T22:39:20.676Z,9.50
2018-03-14T22:41:48.472Z,9.50
2018-03-14T22:44:16.339Z,9.40
2018-03-14T22:46:44.106Z,9.40
2018-03-14T22:49:11.812Z,9.40
2018-03-14T22:51:40.216Z,9.40
2018-03-14T22:54:07.905Z,9.30
2018-03-14T22:56:35.510Z,9.40
2018-03-14T22:59:04.172Z,9.30
2018-03-14T23:01:32.683Z,9.30
2018-03-14T23:04:01.212Z,9.30
2018-03-14T23:06:28.946Z,9.20
2018-03-14T23:08:57.505Z,9.30
2018-03-14T23:11:26.071Z,9.30
2018-03-14T23:13:53.838Z,9.20
2018-03-14T23:16:23.027Z,9.20
2018-03-14T23:18:50.778Z,9.20
2018-03-14T23:21:18.654Z,9.20
2018-03-14T23:23:46.432Z,9.20
2018-03-14T23:26:14.184Z,9.30
2018-03-14T23:28:41.955Z,9.30
2018-03-14T23:31:09.728Z,9.30
2018-03-14T23:33:37.385Z,9.30
2018-03-14T23:36:05.144Z,9.30
2018-03-14T23:38:32.745Z,9.30
2018-03-14T23:41:01.267Z,9.30
2018-03-14T23:43:28.941Z,9.30
2018-03-14T23:45:56.597Z,9.30
2018-03-14T23:48:24.273Z,9.30
2018-03-14T23:50:52.021Z,9.30
2018-03-14T23:53:19.690Z,9.30
2018-03-14T23:55:47.319Z,9.30
2018-03-14T23:58:15.218Z,9.30
